sensor_id;sensor_type;location;lat;lon;timestamp;temperature;humidity
19567;DHT22;9930;49.240;8.548;2024-03-07T00:00:09;8.70;84.40
19567;DHT22;9930;49.240;8.548;2024-03-07T00:02:51;8.60;84.50
19567;DHT22;9930;49.240;8.548;2024-03-07T00:05:21;8.60;84.40
19567;DHT22;9930;49.240;8.548;2024-03-07T00:07:49;8.70;84.50
19567;DHT22;9930;49.240;8.548;2024-03-07T00:10:15;8.60;84.40
19567;DHT22;9930;49.240;8.548;2024-03-07T00:12:42;8.60;84.50
19567;DHT22;9930;49.240;8.548;2024-03-07T00:15:12;8.60;84.40
19567;DHT22;9930;49.240;8.548;2024-03-07T00:17:39;8.60;84.60
19567;DHT22;9930;49.240;8.548;2024-03-07T00:20:08;8.50;84.50
19567;DHT22;9930;49.240;8.548;2024-03-07T00:22:35;8.60;84.60
19567;DHT22;9930;49.240;8.548;2024-03-07T00:25:02;8.50;84.70
19567;DHT22;9930;49.240;8.548;2024-03-07T00:27:33;8.50;84.70
19567;DHT22;9930;49.240;8.548;2024-03-07T00:29:59;8.50;84.80
19567;DHT22;9930;49.240;8.548;2024-03-07T00:32:25;8.50;84.80
19567;DHT22;9930;49.240;8.548;2024-03-07T00:34:53;8.50;84.80
19567;DHT22;9930;49.240;8.548;2024-03-07T00:37:19;8.50;84.80
19567;DHT22;9930;49.240;8.548;2024-03-07T00:39:46;8.50;84.80
19567;DHT22;9930;49.240;8.548;2024-03-07T00:42:12;8.50;84.80
19567;DHT22;9930;49.240;8.548;2024-03-07T00:44:38;8.50;84.80
19567;DHT22;9930;49.240;8.548;2024-03-07T00:47:04;8.50;84.70
19567;DHT22;9930;49.240;8.548;2024-03-07T00:49:30;8.50;84.60
19567;DHT22;9930;49.240;8.548;2024-03-07T00:51:57;8.50;84.50
19567;DHT22;9930;49.240;8.548;2024-03-07T00:54:23;8.50;84.50
19567;DHT22;9930;49.240;8.548;2024-03-07T00:56:49;8.50;84.50
19567;DHT22;9930;49.240;8.548;2024-03-07T00:59:18;8.50;84.60
19567;DHT22;9930;49.240;8.548;2024-03-07T01:01:44;8.50;84.60
19567;DHT22;9930;49.240;8.548;2024-03-07T01:04:11;8.50;84.60
19567;DHT22;9930;49.240;8.548;2024-03-07T01:06:37;8.50;84.60
19567;DHT22;9930;49.240;8.548;2024-03-07T01:09:03;8.50;84.60
19567;DHT22;9930;49.240;8.548;2024-03-07T01:11:29;8.50;84.40
19567;DHT22;9930;49.240;8.548;2024-03-07T01:13:55;8.40;84.40
19567;DHT22;9930;49.240;8.548;2024-03-07T01:16:22;8.40;84.30
19567;DHT22;9930;49.240;8.548;2024-03-07T01:18:47;8.40;84.30
19567;DHT22;9930;49.240;8.548;2024-03-07T01:21:14;8.40;84.30
19567;DHT22;9930;49.240;8.548;2024-03-07T01:23:40;8.40;84.30
19567;DHT22;9930;49.240;8.548;2024-03-07T01:26:06;8.40;84.40
19567;DHT22;9930;49.240;8.548;2024-03-07T01:28:34;8.30;84.20
19567;DHT22;9930;49.240;8.548;2024-03-07T01:31:00;8.40;84.30
19567;DHT22;9930;49.240;8.548;2024-03-07T01:33:26;8.30;84.20
19567;DHT22;9930;49.240;8.548;2024-03-07T01:35:52;8.30;84.20
19567;DHT22;9930;49.240;8.548;2024-03-07T01:38:18;8.20;84.20
19567;DHT22;9930;49.240;8.548;2024-03-07T01:40:44;8.20;84.40
19567;DHT22;9930;49.240;8.548;2024-03-07T01:43:10;8.20;84.40
19567;DHT22;9930;49.240;8.548;2024-03-07T01:45:39;8.20;84.60
19567;DHT22;9930;49.240;8.548;2024-03-07T01:48:06;8.20;84.70
19567;DHT22;9930;49.240;8.548;2024-03-07T01:50:35;8.20;84.70
19567;DHT22;9930;49.240;8.548;2024-03-07T01:53:06;8.20;84.80
19567;DHT22;9930;49.240;8.548;2024-03-07T01:55:34;8.20;84.80
19567;DHT22;9930;49.240;8.548;2024-03-07T01:58:00;8.20;84.90
19567;DHT22;9930;49.240;8.548;2024-03-07T02:00:30;8.20;84.90
19567;DHT22;9930;49.240;8.548;2024-03-07T02:02:55;8.20;84.90
19567;DHT22;9930;49.240;8.548;2024-03-07T02:05:22;8.20;84.90
19567;DHT22;9930;49.240;8.548;2024-03-07T02:07:47;8.20;84.80
19567;DHT22;9930;49.240;8.548;2024-03-07T02:10:13;8.20;84.70
19567;DHT22;9930;49.240;8.548;2024-03-07T02:12:39;8.20;84.60
19567;DHT22;9930;49.240;8.548;2024-03-07T02:15:05;8.20;84.50
19567;DHT22;9930;49.240;8.548;2024-03-07T02:17:31;8.10;84.30
19567;DHT22;9930;49.240;8.548;2024-03-07T02:19:57;8.20;84.40
19567;DHT22;9930;49.240;8.548;2024-03-07T02:22:24;8.10;84.20
19567;DHT22;9930;49.240;8.548;2024-03-07T02:24:51;8.10;84.10
19567;DHT22;9930;49.240;8.548;2024-03-07T02:27:17;8.00;84.20
19567;DHT22;9930;49.240;8.548;2024-03-07T02:29:43;8.00;84.10
19567;DHT22;9930;49.240;8.548;2024-03-07T02:32:09;8.00;84.00
19567;DHT22;9930;49.240;8.548;2024-03-07T02:34:35;8.00;84.10
19567;DHT22;9930;49.240;8.548;2024-03-07T02:37:01;7.90;83.90
19567;DHT22;9930;49.240;8.548;2024-03-07T02:39:28;7.90;83.80
19567;DHT22;9930;49.240;8.548;2024-03-07T02:41:54;8.00;83.80
19567;DHT22;9930;49.240;8.548;2024-03-07T02:44:20;7.90;83.70
19567;DHT22;9930;49.240;8.548;2024-03-07T02:46:45;7.80;83.70
19567;DHT22;9930;49.240;8.548;2024-03-07T02:49:14;7.80;83.60
19567;DHT22;9930;49.240;8.548;2024-03-07T02:51:40;7.80;83.70
19567;DHT22;9930;49.240;8.548;2024-03-07T02:54:07;7.70;83.60
19567;DHT22;9930;49.240;8.548;2024-03-07T02:56:34;7.70;83.60
19567;DHT22;9930;49.240;8.548;2024-03-07T02:59:00;7.60;83.40
19567;DHT22;9930;49.240;8.548;2024-03-07T03:01:26;7.60;83.50
19567;DHT22;9930;49.240;8.548;2024-03-07T03:03:52;7.60;83.50
19567;DHT22;9930;49.240;8.548;2024-03-07T03:06:18;7.50;83.50
19567;DHT22;9930;49.240;8.548;2024-03-07T03:08:46;7.50;83.50
19567;DHT22;9930;49.240;8.548;2024-03-07T03:11:12;7.40;83.40
19567;DHT22;9930;49.240;8.548;2024-03-07T03:13:39;7.40;83.50
19567;DHT22;9930;49.240;8.548;2024-03-07T03:16:08;7.40;83.50
19567;DHT22;9930;49.240;8.548;2024-03-07T03:18:35;7.30;83.50
19567;DHT22;9930;49.240;8.548;2024-03-07T03:21:01;7.30;83.40
19567;DHT22;9930;49.240;8.548;2024-03-07T03:23:28;7.30;83.50
19567;DHT22;9930;49.240;8.548;2024-03-07T03:25:54;7.20;83.40
19567;DHT22;9930;49.240;8.548;2024-03-07T03:28:21;7.20;83.40
19567;DHT22;9930;49.240;8.548;2024-03-07T03:30:48;7.20;83.50
19567;DHT22;9930;49.240;8.548;2024-03-07T03:33:15;7.10;83.50
19567;DHT22;9930;49.240;8.548;2024-03-07T03:35:41;7.10;83.40
19567;DHT22;9930;49.240;8.548;2024-03-07T03:38:07;7.10;83.50
19567;DHT22;9930;49.240;8.548;2024-03-07T03:40:34;7.00;83.50
19567;DHT22;9930;49.240;8.548;2024-03-07T03:43:00;7.00;83.50
19567;DHT22;9930;49.240;8.548;2024-03-07T03:45:26;6.90;83.60
19567;DHT22;9930;49.240;8.548;2024-03-07T03:47:53;6.90;83.70
19567;DHT22;9930;49.240;8.548;2024-03-07T03:50:19;6.90;83.70
19567;DHT22;9930;49.240;8.548;2024-03-07T03:52:45;6.90;83.70
19567;DHT22;9930;49.240;8.548;2024-03-07T03:55:11;6.90;83.70
19567;DHT22;9930;49.240;8.548;2024-03-07T03:57:39;6.90;83.70
19567;DHT22;9930;49.240;8.548;2024-03-07T04:00:07;6.90;83.70
19567;DHT22;9930;49.240;8.548;2024-03-07T04:02:40;6.90;83.50
19567;DHT22;9930;49.240;8.548;2024-03-07T04:05:08;6.80;83.50
19567;DHT22;9930;49.240;8.548;2024-03-07T04:07:35;6.80;83.40
19567;DHT22;9930;49.240;8.548;2024-03-07T04:10:01;6.80;83.40
19567;DHT22;9930;49.240;8.548;2024-03-07T04:12:33;6.70;83.30
19567;DHT22;9930;49.240;8.548;2024-03-07T04:15:00;6.70;83.70
19567;DHT22;9930;49.240;8.548;2024-03-07T04:17:26;6.70;83.30
19567;DHT22;9930;49.240;8.548;2024-03-07T04:19:52;6.70;83.30
19567;DHT22;9930;49.240;8.548;2024-03-07T04:22:18;6.70;83.20
19567;DHT22;9930;49.240;8.548;2024-03-07T04:24:45;6.60;83.10
19567;DHT22;9930;49.240;8.548;2024-03-07T04:27:11;6.60;83.10
19567;DHT22;9930;49.240;8.548;2024-03-07T04:29:37;6.60;83.10
19567;DHT22;9930;49.240;8.548;2024-03-07T04:32:04;6.60;83.10
19567;DHT22;9930;49.240;8.548;2024-03-07T04:34:30;6.60;83.10
19567;DHT22;9930;49.240;8.548;2024-03-07T04:36:57;6.50;83.20
19567;DHT22;9930;49.240;8.548;2024-03-07T04:39:27;6.50;83.20
19567;DHT22;9930;49.240;8.548;2024-03-07T04:42:02;6.50;83.30
19567;DHT22;9930;49.240;8.548;2024-03-07T04:44:29;6.50;83.20
19567;DHT22;9930;49.240;8.548;2024-03-07T04:46:59;6.50;83.40
19567;DHT22;9930;49.240;8.548;2024-03-07T04:49:27;6.50;83.30
19567;DHT22;9930;49.240;8.548;2024-03-07T04:51:55;6.50;83.30
19567;DHT22;9930;49.240;8.548;2024-03-07T04:54:26;6.50;83.10
19567;DHT22;9930;49.240;8.548;2024-03-07T04:56:52;6.50;83.10
19567;DHT22;9930;49.240;8.548;2024-03-07T04:59:20;6.50;83.10
19567;DHT22;9930;49.240;8.548;2024-03-07T05:01:47;6.40;82.90
19567;DHT22;9930;49.240;8.548;2024-03-07T05:04:16;6.50;82.90
19567;DHT22;9930;49.240;8.548;2024-03-07T05:06:42;6.40;82.80
19567;DHT22;9930;49.240;8.548;2024-03-07T05:09:09;6.40;82.70
19567;DHT22;9930;49.240;8.548;2024-03-07T05:11:48;6.40;82.70
19567;DHT22;9930;49.240;8.548;2024-03-07T05:14:17;6.30;82.70
19567;DHT22;9930;49.240;8.548;2024-03-07T05:16:43;6.30;82.60
19567;DHT22;9930;49.240;8.548;2024-03-07T05:19:09;6.30;82.60
19567;DHT22;9930;49.240;8.548;2024-03-07T05:21:35;6.30;82.60
19567;DHT22;9930;49.240;8.548;2024-03-07T05:24:07;6.30;82.60
19567;DHT22;9930;49.240;8.548;2024-03-07T05:26:37;6.20;82.50
19567;DHT22;9930;49.240;8.548;2024-03-07T05:29:04;6.20;82.60
19567;DHT22;9930;49.240;8.548;2024-03-07T05:31:34;6.10;82.50
19567;DHT22;9930;49.240;8.548;2024-03-07T05:34:01;6.10;82.50
19567;DHT22;9930;49.240;8.548;2024-03-07T05:36:36;6.10;82.50
19567;DHT22;9930;49.240;8.548;2024-03-07T05:39:10;6.00;82.40
19567;DHT22;9930;49.240;8.548;2024-03-07T05:41:40;6.00;82.50
19567;DHT22;9930;49.240;8.548;2024-03-07T05:44:07;6.00;82.50
19567;DHT22;9930;49.240;8.548;2024-03-07T05:49:09;5.90;82.50
19567;DHT22;9930;49.240;8.548;2024-03-07T05:51:35;5.90;82.70
19567;DHT22;9930;49.240;8.548;2024-03-07T05:54:01;5.80;82.60
19567;DHT22;9930;49.240;8.548;2024-03-07T05:56:32;5.80;82.70
19567;DHT22;9930;49.240;8.548;2024-03-07T05:59:04;5.80;82.70
19567;DHT22;9930;49.240;8.548;2024-03-07T06:01:33;5.80;82.80
19567;DHT22;9930;49.240;8.548;2024-03-07T06:04:04;5.70;82.70
19567;DHT22;9930;49.240;8.548;2024-03-07T06:06:31;5.70;82.80
19567;DHT22;9930;49.240;8.548;2024-03-07T06:09:07;5.70;82.80
19567;DHT22;9930;49.240;8.548;2024-03-07T06:11:34;5.70;82.80
19567;DHT22;9930;49.240;8.548;2024-03-07T06:14:01;5.60;82.90
19567;DHT22;9930;49.240;8.548;2024-03-07T06:16:33;5.60;83.80
19567;DHT22;9930;49.240;8.548;2024-03-07T06:19:04;5.60;83.20
19567;DHT22;9930;49.240;8.548;2024-03-07T06:21:36;5.60;83.30
19567;DHT22;9930;49.240;8.548;2024-03-07T06:24:04;5.60;83.30
19567;DHT22;9930;49.240;8.548;2024-03-07T06:26:33;5.70;83.40
19567;DHT22;9930;49.240;8.548;2024-03-07T06:29:11;5.60;83.40
19567;DHT22;9930;49.240;8.548;2024-03-07T06:31:38;5.70;83.50
19567;DHT22;9930;49.240;8.548;2024-03-07T06:34:04;5.70;83.40
19567;DHT22;9930;49.240;8.548;2024-03-07T06:36:30;5.70;83.20
19567;DHT22;9930;49.240;8.548;2024-03-07T06:38:56;5.70;83.10
19567;DHT22;9930;49.240;8.548;2024-03-07T06:41:21;5.70;83.00
19567;DHT22;9930;49.240;8.548;2024-03-07T06:43:47;5.70;83.00
19567;DHT22;9930;49.240;8.548;2024-03-07T06:46:15;5.70;83.10
19567;DHT22;9930;49.240;8.548;2024-03-07T06:48:44;5.70;83.30
19567;DHT22;9930;49.240;8.548;2024-03-07T06:51:10;5.70;83.50
19567;DHT22;9930;49.240;8.548;2024-03-07T06:53:36;5.70;83.60
19567;DHT22;9930;49.240;8.548;2024-03-07T06:56:03;5.80;83.60
19567;DHT22;9930;49.240;8.548;2024-03-07T06:58:32;5.80;83.60
19567;DHT22;9930;49.240;8.548;2024-03-07T07:00:59;5.90;83.70
19567;DHT22;9930;49.240;8.548;2024-03-07T07:03:26;5.90;83.60
19567;DHT22;9930;49.240;8.548;2024-03-07T07:05:56;5.90;83.60
19567;DHT22;9930;49.240;8.548;2024-03-07T07:08:21;5.90;83.60
19567;DHT22;9930;49.240;8.548;2024-03-07T07:10:47;6.00;83.70
19567;DHT22;9930;49.240;8.548;2024-03-07T07:13:13;6.00;83.70
19567;DHT22;9930;49.240;8.548;2024-03-07T07:15:39;6.10;83.90
19567;DHT22;9930;49.240;8.548;2024-03-07T07:18:05;6.10;84.10
19567;DHT22;9930;49.240;8.548;2024-03-07T07:20:34;6.20;84.30
19567;DHT22;9930;49.240;8.548;2024-03-07T07:23:00;6.30;84.60
19567;DHT22;9930;49.240;8.548;2024-03-07T07:25:27;6.40;84.80
19567;DHT22;9930;49.240;8.548;2024-03-07T07:27:53;6.50;84.80
19567;DHT22;9930;49.240;8.548;2024-03-07T07:30:21;6.60;84.90
19567;DHT22;9930;49.240;8.548;2024-03-07T07:32:53;6.70;84.90
19567;DHT22;9930;49.240;8.548;2024-03-07T07:35:19;6.80;84.80
19567;DHT22;9930;49.240;8.548;2024-03-07T07:37:47;7.00;84.90
19567;DHT22;9930;49.240;8.548;2024-03-07T07:40:16;7.10;84.80
19567;DHT22;9930;49.240;8.548;2024-03-07T07:42:47;7.20;84.70
19567;DHT22;9930;49.240;8.548;2024-03-07T07:45:16;7.30;84.20
19567;DHT22;9930;49.240;8.548;2024-03-07T07:50:12;7.50;84.00
19567;DHT22;9930;49.240;8.548;2024-03-07T07:52:43;7.60;83.60
19567;DHT22;9930;49.240;8.548;2024-03-07T07:55:11;7.70;83.30
19567;DHT22;9930;49.240;8.548;2024-03-07T07:57:43;7.80;83.00
19567;DHT22;9930;49.240;8.548;2024-03-07T08:00:20;7.80;83.30
19567;DHT22;9930;49.240;8.548;2024-03-07T08:02:55;7.80;82.10
19567;DHT22;9930;49.240;8.548;2024-03-07T08:05:23;7.80;82.00
19567;DHT22;9930;49.240;8.548;2024-03-07T08:07:54;7.90;82.10
19567;DHT22;9930;49.240;8.548;2024-03-07T08:10:26;7.90;81.90
19567;DHT22;9930;49.240;8.548;2024-03-07T08:12:57;8.00;82.40
19567;DHT22;9930;49.240;8.548;2024-03-07T08:15:25;8.00;82.30
19567;DHT22;9930;49.240;8.548;2024-03-07T08:17:53;8.10;82.30
19567;DHT22;9930;49.240;8.548;2024-03-07T08:20:21;8.20;82.60
19567;DHT22;9930;49.240;8.548;2024-03-07T08:22:49;8.20;82.30
19567;DHT22;9930;49.240;8.548;2024-03-07T08:25:20;8.30;82.10
19567;DHT22;9930;49.240;8.548;2024-03-07T08:27:51;8.40;82.30
19567;DHT22;9930;49.240;8.548;2024-03-07T08:30:19;8.40;82.10
19567;DHT22;9930;49.240;8.548;2024-03-07T08:32:46;8.50;81.60
19567;DHT22;9930;49.240;8.548;2024-03-07T08:35:17;8.50;81.40
19567;DHT22;9930;49.240;8.548;2024-03-07T08:37:46;8.60;81.30
19567;DHT22;9930;49.240;8.548;2024-03-07T08:40:18;8.70;81.20
19567;DHT22;9930;49.240;8.548;2024-03-07T08:42:49;8.70;81.10
19567;DHT22;9930;49.240;8.548;2024-03-07T08:45:26;8.80;80.80
19567;DHT22;9930;49.240;8.548;2024-03-07T08:47:53;8.80;81.00
19567;DHT22;9930;49.240;8.548;2024-03-07T08:50:20;8.90;81.00
19567;DHT22;9930;49.240;8.548;2024-03-07T08:52:48;9.00;80.80
19567;DHT22;9930;49.240;8.548;2024-03-07T08:55:16;9.00;80.90
19567;DHT22;9930;49.240;8.548;2024-03-07T08:57:43;9.10;80.80
19567;DHT22;9930;49.240;8.548;2024-03-07T09:00:12;9.20;80.40
19567;DHT22;9930;49.240;8.548;2024-03-07T09:02:48;9.30;80.70
19567;DHT22;9930;49.240;8.548;2024-03-07T09:05:21;9.40;80.40
19567;DHT22;9930;49.240;8.548;2024-03-07T09:07:48;9.40;80.50
19567;DHT22;9930;49.240;8.548;2024-03-07T09:10:15;9.50;80.40
19567;DHT22;9930;49.240;8.548;2024-03-07T09:12:41;9.60;80.90
19567;DHT22;9930;49.240;8.548;2024-03-07T09:15:07;9.70;79.90
19567;DHT22;9930;49.240;8.548;2024-03-07T09:17:36;9.80;79.80
19567;DHT22;9930;49.240;8.548;2024-03-07T09:20:06;9.80;79.50
19567;DHT22;9930;49.240;8.548;2024-03-07T09:22:34;10.00;79.40
19567;DHT22;9930;49.240;8.548;2024-03-07T09:25:01;10.10;79.10
19567;DHT22;9930;49.240;8.548;2024-03-07T09:27:29;10.10;78.70
19567;DHT22;9930;49.240;8.548;2024-03-07T09:29:54;10.20;78.30
19567;DHT22;9930;49.240;8.548;2024-03-07T09:32:20;10.30;77.90
19567;DHT22;9930;49.240;8.548;2024-03-07T09:34:47;10.30;78.20
19567;DHT22;9930;49.240;8.548;2024-03-07T09:37:13;10.40;77.40
19567;DHT22;9930;49.240;8.548;2024-03-07T09:39:38;10.50;77.80
19567;DHT22;9930;49.240;8.548;2024-03-07T09:42:09;10.50;77.10
19567;DHT22;9930;49.240;8.548;2024-03-07T09:44:42;10.50;74.40
19567;DHT22;9930;49.240;8.548;2024-03-07T09:47:10;10.50;73.90
19567;DHT22;9930;49.240;8.548;2024-03-07T09:49:38;10.50;74.80
19567;DHT22;9930;49.240;8.548;2024-03-07T09:52:06;10.40;74.80
19567;DHT22;9930;49.240;8.548;2024-03-07T09:54:39;10.40;74.10
19567;DHT22;9930;49.240;8.548;2024-03-07T09:57:10;10.30;74.50
19567;DHT22;9930;49.240;8.548;2024-03-07T09:59:37;10.30;74.40
19567;DHT22;9930;49.240;8.548;2024-03-07T10:02:07;10.30;74.80
19567;DHT22;9930;49.240;8.548;2024-03-07T10:04:42;10.30;74.60
19567;DHT22;9930;49.240;8.548;2024-03-07T10:07:15;10.20;74.40
19567;DHT22;9930;49.240;8.548;2024-03-07T10:09:42;10.20;74.90
19567;DHT22;9930;49.240;8.548;2024-03-07T10:12:08;10.30;75.20
19567;DHT22;9930;49.240;8.548;2024-03-07T10:14:56;10.30;75.10
19567;DHT22;9930;49.240;8.548;2024-03-07T10:17:25;10.40;74.40
19567;DHT22;9930;49.240;8.548;2024-03-07T10:19:51;10.50;75.10
19567;DHT22;9930;49.240;8.548;2024-03-07T10:22:18;10.50;75.10
19567;DHT22;9930;49.240;8.548;2024-03-07T10:24:56;10.60;75.20
19567;DHT22;9930;49.240;8.548;2024-03-07T10:27:26;10.70;74.40
19567;DHT22;9930;49.240;8.548;2024-03-07T10:29:54;10.80;74.90
19567;DHT22;9930;49.240;8.548;2024-03-07T10:32:21;10.90;75.00
19567;DHT22;9930;49.240;8.548;2024-03-07T10:34:51;11.00;75.10
19567;DHT22;9930;49.240;8.548;2024-03-07T10:37:18;11.00;75.10
19567;DHT22;9930;49.240;8.548;2024-03-07T10:39:49;11.10;75.10
19567;DHT22;9930;49.240;8.548;2024-03-07T10:42:16;11.20;74.70
19567;DHT22;9930;49.240;8.548;2024-03-07T10:44:45;11.30;74.90
19567;DHT22;9930;49.240;8.548;2024-03-07T10:47:17;11.40;74.10
19567;DHT22;9930;49.240;8.548;2024-03-07T10:50:17;11.40;73.80
19567;DHT22;9930;49.240;8.548;2024-03-07T10:52:58;11.50;72.20
19567;DHT22;9930;49.240;8.548;2024-03-07T10:55:33;11.50;73.00
19567;DHT22;9930;49.240;8.548;2024-03-07T10:58:34;11.50;72.80
19567;DHT22;9930;49.240;8.548;2024-03-07T11:01:05;11.50;71.50
19567;DHT22;9930;49.240;8.548;2024-03-07T11:03:36;11.50;72.70
19567;DHT22;9930;49.240;8.548;2024-03-07T11:06:02;11.60;72.80
19567;DHT22;9930;49.240;8.548;2024-03-07T11:08:33;11.60;73.00
19567;DHT22;9930;49.240;8.548;2024-03-07T11:11:00;11.70;73.00
19567;DHT22;9930;49.240;8.548;2024-03-07T11:13:26;11.80;72.00
19567;DHT22;9930;49.240;8.548;2024-03-07T11:15:54;11.80;71.70
19567;DHT22;9930;49.240;8.548;2024-03-07T11:18:23;11.80;72.00
19567;DHT22;9930;49.240;8.548;2024-03-07T11:20:52;11.80;71.50
19567;DHT22;9930;49.240;8.548;2024-03-07T11:23:29;11.90;72.00
19567;DHT22;9930;49.240;8.548;2024-03-07T11:26:08;11.90;71.20
19567;DHT22;9930;49.240;8.548;2024-03-07T11:28:36;11.90;71.60
19567;DHT22;9930;49.240;8.548;2024-03-07T11:31:09;11.90;71.40
19567;DHT22;9930;49.240;8.548;2024-03-07T11:34:16;11.90;71.70
19567;DHT22;9930;49.240;8.548;2024-03-07T11:36:45;11.90;71.10
19567;DHT22;9930;49.240;8.548;2024-03-07T11:39:46;12.10;72.40
19567;DHT22;9930;49.240;8.548;2024-03-07T11:42:28;12.10;72.00
19567;DHT22;9930;49.240;8.548;2024-03-07T11:44:56;12.20;72.50
19567;DHT22;9930;49.240;8.548;2024-03-07T11:47:24;12.30;72.60
19567;DHT22;9930;49.240;8.548;2024-03-07T11:49:54;12.40;72.30
19567;DHT22;9930;49.240;8.548;2024-03-07T11:52:23;12.50;72.50
19567;DHT22;9930;49.240;8.548;2024-03-07T11:54:49;12.60;71.80
19567;DHT22;9930;49.240;8.548;2024-03-07T11:57:17;12.70;71.00
19567;DHT22;9930;49.240;8.548;2024-03-07T11:59:52;12.70;70.50
19567;DHT22;9930;49.240;8.548;2024-03-07T12:02:18;12.80;70.70
19567;DHT22;9930;49.240;8.548;2024-03-07T12:04:48;12.70;69.50
19567;DHT22;9930;49.240;8.548;2024-03-07T12:07:15;12.70;69.50
19567;DHT22;9930;49.240;8.548;2024-03-07T12:09:44;12.70;69.60
19567;DHT22;9930;49.240;8.548;2024-03-07T12:12:16;12.60;69.40
19567;DHT22;9930;49.240;8.548;2024-03-07T12:14:43;12.60;69.90
19567;DHT22;9930;49.240;8.548;2024-03-07T12:17:09;12.60;68.80
19567;DHT22;9930;49.240;8.548;2024-03-07T12:19:35;12.60;69.90
19567;DHT22;9930;49.240;8.548;2024-03-07T12:22:08;12.60;70.00
19567;DHT22;9930;49.240;8.548;2024-03-07T12:24:39;12.60;69.30
19567;DHT22;9930;49.240;8.548;2024-03-07T12:27:12;12.70;69.60
19567;DHT22;9930;49.240;8.548;2024-03-07T12:29:39;12.70;69.10
19567;DHT22;9930;49.240;8.548;2024-03-07T12:32:08;12.70;69.60
19567;DHT22;9930;49.240;8.548;2024-03-07T12:34:37;12.70;69.50
19567;DHT22;9930;49.240;8.548;2024-03-07T12:37:06;12.80;69.00
19567;DHT22;9930;49.240;8.548;2024-03-07T12:39:34;12.80;68.70
19567;DHT22;9930;49.240;8.548;2024-03-07T12:42:04;12.80;68.20
19567;DHT22;9930;49.240;8.548;2024-03-07T12:44:41;12.80;68.90
19567;DHT22;9930;49.240;8.548;2024-03-07T12:47:17;12.80;68.60
19567;DHT22;9930;49.240;8.548;2024-03-07T12:49:44;12.90;69.30
19567;DHT22;9930;49.240;8.548;2024-03-07T12:52:11;12.90;69.20
19567;DHT22;9930;49.240;8.548;2024-03-07T12:54:40;13.00;69.20
19567;DHT22;9930;49.240;8.548;2024-03-07T12:57:07;13.10;69.30
19567;DHT22;9930;49.240;8.548;2024-03-07T12:59:35;13.10;69.20
19567;DHT22;9930;49.240;8.548;2024-03-07T13:02:10;13.10;69.00
19567;DHT22;9930;49.240;8.548;2024-03-07T13:04:38;13.10;68.30
19567;DHT22;9930;49.240;8.548;2024-03-07T13:07:05;13.10;68.70
19567;DHT22;9930;49.240;8.548;2024-03-07T13:09:35;13.10;68.50
19567;DHT22;9930;49.240;8.548;2024-03-07T13:12:01;13.10;68.70
19567;DHT22;9930;49.240;8.548;2024-03-07T13:14:30;13.20;68.60
19567;DHT22;9930;49.240;8.548;2024-03-07T13:16:59;13.20;68.70
19567;DHT22;9930;49.240;8.548;2024-03-07T13:19:28;13.20;68.50
19567;DHT22;9930;49.240;8.548;2024-03-07T13:21:55;13.20;68.40
19567;DHT22;9930;49.240;8.548;2024-03-07T13:24:22;13.20;68.40
19567;DHT22;9930;49.240;8.548;2024-03-07T13:26:49;13.20;68.00
19567;DHT22;9930;49.240;8.548;2024-03-07T13:29:15;13.20;68.30
19567;DHT22;9930;49.240;8.548;2024-03-07T13:31:44;13.20;68.10
19567;DHT22;9930;49.240;8.548;2024-03-07T13:34:11;13.30;68.10
19567;DHT22;9930;49.240;8.548;2024-03-07T13:36:44;13.30;68.20
19567;DHT22;9930;49.240;8.548;2024-03-07T13:39:11;13.30;68.10
19567;DHT22;9930;49.240;8.548;2024-03-07T13:41:40;13.30;68.10
19567;DHT22;9930;49.240;8.548;2024-03-07T13:44:14;13.30;67.80
19567;DHT22;9930;49.240;8.548;2024-03-07T13:46:40;13.30;67.90
19567;DHT22;9930;49.240;8.548;2024-03-07T13:49:05;13.30;68.00
19567;DHT22;9930;49.240;8.548;2024-03-07T13:51:39;13.30;67.80
19567;DHT22;9930;49.240;8.548;2024-03-07T13:54:16;13.30;67.70
19567;DHT22;9930;49.240;8.548;2024-03-07T13:57:30;13.30;67.50
19567;DHT22;9930;49.240;8.548;2024-03-07T14:06:26;13.10;66.90
19567;DHT22;9930;49.240;8.548;2024-03-07T14:09:30;13.10;67.30
19567;DHT22;9930;49.240;8.548;2024-03-07T14:12:27;13.10;67.50
19567;DHT22;9930;49.240;8.548;2024-03-07T14:18:18;13.10;67.90
19567;DHT22;9930;49.240;8.548;2024-03-07T14:30:22;13.10;66.90
19567;DHT22;9930;49.240;8.548;2024-03-07T14:33:05;13.10;67.10
19567;DHT22;9930;49.240;8.548;2024-03-07T14:38:54;13.20;67.50
19567;DHT22;9930;49.240;8.548;2024-03-07T14:44:19;13.10;66.20
19567;DHT22;9930;49.240;8.548;2024-03-07T14:46:58;13.10;66.90
19567;DHT22;9930;49.240;8.548;2024-03-07T14:49:31;13.10;67.00
19567;DHT22;9930;49.240;8.548;2024-03-07T14:51:58;13.00;67.10
19567;DHT22;9930;49.240;8.548;2024-03-07T14:54:24;13.00;67.10
19567;DHT22;9930;49.240;8.548;2024-03-07T14:56:52;13.00;67.10
19567;DHT22;9930;49.240;8.548;2024-03-07T14:59:18;13.00;67.10
19567;DHT22;9930;49.240;8.548;2024-03-07T15:01:44;13.00;67.20
19567;DHT22;9930;49.240;8.548;2024-03-07T15:04:10;13.00;66.90
19567;DHT22;9930;49.240;8.548;2024-03-07T15:06:38;13.00;66.90
19567;DHT22;9930;49.240;8.548;2024-03-07T15:09:05;13.00;67.00
19567;DHT22;9930;49.240;8.548;2024-03-07T15:11:39;13.00;66.90
19567;DHT22;9930;49.240;8.548;2024-03-07T15:14:06;12.90;67.40
19567;DHT22;9930;49.240;8.548;2024-03-07T15:16:36;12.90;66.80
19567;DHT22;9930;49.240;8.548;2024-03-07T15:19:07;12.90;66.70
19567;DHT22;9930;49.240;8.548;2024-03-07T15:21:36;12.90;67.40
19567;DHT22;9930;49.240;8.548;2024-03-07T15:24:05;12.80;66.60
19567;DHT22;9930;49.240;8.548;2024-03-07T15:26:32;12.80;66.60
19567;DHT22;9930;49.240;8.548;2024-03-07T15:28:57;12.80;67.60
19567;DHT22;9930;49.240;8.548;2024-03-07T15:31:25;12.80;66.70
19567;DHT22;9930;49.240;8.548;2024-03-07T15:33:52;12.70;66.80
19567;DHT22;9930;49.240;8.548;2024-03-07T15:36:18;12.70;66.70
19567;DHT22;9930;49.240;8.548;2024-03-07T15:38:45;12.70;66.90
19567;DHT22;9930;49.240;8.548;2024-03-07T15:41:11;12.70;66.80
19567;DHT22;9930;49.240;8.548;2024-03-07T15:43:40;12.70;66.80
19567;DHT22;9930;49.240;8.548;2024-03-07T15:46:08;12.70;66.80
19567;DHT22;9930;49.240;8.548;2024-03-07T15:48:37;12.70;66.80
19567;DHT22;9930;49.240;8.548;2024-03-07T15:51:04;12.70;67.00
19567;DHT22;9930;49.240;8.548;2024-03-07T15:53:32;12.70;67.00
19567;DHT22;9930;49.240;8.548;2024-03-07T15:55:59;12.70;66.90
19567;DHT22;9930;49.240;8.548;2024-03-07T15:58:26;12.70;66.80
19567;DHT22;9930;49.240;8.548;2024-03-07T16:00:52;12.70;66.70
19567;DHT22;9930;49.240;8.548;2024-03-07T16:03:18;12.70;66.90
19567;DHT22;9930;49.240;8.548;2024-03-07T16:05:44;12.70;66.70
19567;DHT22;9930;49.240;8.548;2024-03-07T16:08:10;12.70;66.70
19567;DHT22;9930;49.240;8.548;2024-03-07T16:10:39;12.60;66.60
19567;DHT22;9930;49.240;8.548;2024-03-07T16:13:08;12.60;66.50
19567;DHT22;9930;49.240;8.548;2024-03-07T16:15:35;12.60;66.60
19567;DHT22;9930;49.240;8.548;2024-03-07T16:18:03;12.60;66.60
19567;DHT22;9930;49.240;8.548;2024-03-07T16:20:32;12.50;66.30
19567;DHT22;9930;49.240;8.548;2024-03-07T16:23:00;12.50;66.30
19567;DHT22;9930;49.240;8.548;2024-03-07T16:25:30;12.50;66.20
19567;DHT22;9930;49.240;8.548;2024-03-07T16:27:57;12.40;66.20
19567;DHT22;9930;49.240;8.548;2024-03-07T16:30:25;12.40;66.20
19567;DHT22;9930;49.240;8.548;2024-03-07T16:32:53;12.30;66.30
19567;DHT22;9930;49.240;8.548;2024-03-07T16:35:29;12.30;66.40